createdAt,value
2023-01-26T00:01:29.803Z,74.30
2023-01-26T00:03:57.345Z,85.97
2023-01-26T00:06:24.799Z,79.97
2023-01-26T00:08:53.540Z,81.28
2023-01-26T00:11:26.752Z,74.55
2023-01-26T00:13:54.293Z,79.35
2023-01-26T00:16:21.180Z,88.80
2023-01-26T00:18:47.881Z,88.60
2023-01-26T00:21:18.143Z,102.75
2023-01-26T00:23:44.885Z,85.97
2023-01-26T00:26:15.584Z,83.25
2023-01-26T00:28:42.345Z,76.50
2023-01-26T00:31:13.088Z,71.95
2023-01-26T00:33:40.029Z,70.00
2023-01-26T00:36:07.400Z,81.72
2023-01-26T00:38:34.280Z,90.30
2023-01-26T00:41:00.975Z,71.65
2023-01-26T00:43:27.575Z,81.03
2023-01-26T00:45:54.200Z,70.38
2023-01-26T00:48:22.519Z,72.97
2023-01-26T00:50:51.861Z,72.78
2023-01-26T00:53:18.552Z,81.07
2023-01-26T00:55:45.137Z,67.95
2023-01-26T00:58:12.032Z,71.80
2023-01-26T01:00:39.090Z,71.43
2023-01-26T01:03:06.618Z,61.28
2023-01-26T01:05:33.742Z,64.18
2023-01-26T01:08:00.733Z,85.55
2023-01-26T01:10:27.549Z,60.22
2023-01-26T01:12:54.603Z,68.15
2023-01-26T01:15:21.181Z,59.40
2023-01-26T01:17:48.177Z,68.10
2023-01-26T01:20:14.883Z,71.68
2023-01-26T01:22:41.442Z,56.33
2023-01-26T01:25:08.443Z,68.90
2023-01-26T01:27:35.057Z,75.50
2023-01-26T01:30:01.735Z,76.65
2023-01-26T01:32:28.312Z,63.30
2023-01-26T01:34:54.887Z,74.88
2023-01-26T01:37:21.426Z,62.58
2023-01-26T01:39:49.205Z,66.40
2023-01-26T01:42:15.834Z,59.83
2023-01-26T01:44:43.053Z,73.80
2023-01-26T01:47:14.864Z,65.05
2023-01-26T01:49:49.570Z,65.05
2023-01-26T01:52:26.171Z,58.00
2023-01-26T01:54:58.002Z,68.45
2023-01-26T01:57:30.934Z,63.20
2023-01-26T02:00:10.416Z,78.95
2023-01-26T02:02:38.346Z,62.60
2023-01-26T02:05:15.073Z,78.75
2023-01-26T02:07:41.642Z,74.68
2023-01-26T02:10:20.735Z,67.30
2023-01-26T02:12:55.886Z,83.82
2023-01-26T02:15:23.047Z,87.20
2023-01-26T02:17:52.895Z,69.53
2023-01-26T02:20:28.521Z,72.63
2023-01-26T02:23:15.897Z,73.72
2023-01-26T02:25:54.087Z,76.90
2023-01-26T02:28:27.229Z,72.22
2023-01-26T02:30:55.796Z,80.30
2023-01-26T02:33:25.369Z,69.43
2023-01-26T02:35:52.198Z,67.22
2023-01-26T02:38:21.339Z,74.60
2023-01-26T02:41:04.616Z,64.70
2023-01-26T02:43:32.215Z,84.18
2023-01-26T02:45:59.365Z,80.78
2023-01-26T02:48:44.613Z,65.85
2023-01-26T02:51:11.228Z,85.78
2023-01-26T02:53:37.802Z,90.88
2023-01-26T02:56:04.582Z,85.57
2023-01-26T02:58:31.179Z,76.13
2023-01-26T03:00:57.840Z,83.70
2023-01-26T03:03:41.335Z,76.05
2023-01-26T03:06:10.508Z,78.22
2023-01-26T03:08:37.385Z,70.65
2023-01-26T03:11:06.017Z,69.03
2023-01-26T03:13:32.606Z,61.22
2023-01-26T03:16:06.500Z,78.40
2023-01-26T03:18:54.019Z,85.30
2023-01-26T03:21:39.465Z,84.97
2023-01-26T03:24:28.255Z,63.47
2023-01-26T03:27:13.654Z,66.13
2023-01-26T03:29:40.477Z,72.78
2023-01-26T03:32:07.184Z,69.07
2023-01-26T03:34:33.786Z,79.78
2023-01-26T03:37:00.827Z,53.70
2023-01-26T03:39:45.854Z,77.57
2023-01-26T03:42:31.279Z,57.75
2023-01-26T03:45:16.541Z,61.25
2023-01-26T03:48:01.897Z,59.50
2023-01-26T03:50:47.406Z,56.40
2023-01-26T03:53:37.683Z,71.43
2023-01-26T03:56:19.948Z,71.05
2023-01-26T04:01:19.867Z,55.78
2023-01-26T04:04:06.534Z,57.50
2023-01-26T04:06:52.972Z,71.97
2023-01-26T04:09:20.243Z,70.15
2023-01-26T04:11:47.250Z,87.65
2023-01-26T04:14:36.354Z,59.72
2023-01-26T04:17:36.576Z,68.10
2023-01-26T04:20:22.519Z,59.30
2023-01-26T04:22:49.156Z,61.97
2023-01-26T04:25:19.115Z,60.50
2023-01-26T04:27:46.165Z,65.57
2023-01-26T04:30:18.336Z,73.93
2023-01-26T04:32:48.905Z,61.03
2023-01-26T04:35:15.635Z,58.28
2023-01-26T04:37:42.181Z,70.40
2023-01-26T04:40:09.749Z,57.47
2023-01-26T04:42:36.740Z,61.78
2023-01-26T04:45:03.674Z,63.95
2023-01-26T04:47:30.281Z,64.95
2023-01-26T04:49:57.162Z,73.10
2023-01-26T04:52:23.786Z,72.93
2023-01-26T04:54:50.899Z,59.58
2023-01-26T04:57:20.415Z,65.25
2023-01-26T04:59:47.146Z,61.85
2023-01-26T05:02:13.875Z,61.53
2023-01-26T05:04:40.447Z,63.67
2023-01-26T05:07:07.096Z,63.83
2023-01-26T05:09:33.647Z,65.82
2023-01-26T05:12:20.201Z,68.15
2023-01-26T05:14:46.774Z,65.13
2023-01-26T05:17:13.398Z,71.25
2023-01-26T05:19:39.969Z,61.25
2023-01-26T05:22:06.592Z,58.47
2023-01-26T05:24:33.231Z,68.15
2023-01-26T05:27:18.538Z,51.22
2023-01-26T05:29:45.079Z,59.45
2023-01-26T05:32:11.680Z,63.00
2023-01-26T05:34:38.472Z,61.65
2023-01-26T05:37:05.171Z,68.25
2023-01-26T05:39:31.908Z,69.32
2023-01-26T05:41:58.534Z,67.45
2023-01-26T05:44:25.125Z,64.03
2023-01-26T05:46:52.570Z,48.45
2023-01-26T05:49:19.123Z,55.88
2023-01-26T05:51:45.779Z,61.70
2023-01-26T05:54:12.384Z,66.60
2023-01-26T05:56:38.934Z,56.50
2023-01-26T05:59:05.524Z,66.90
2023-01-26T06:01:32.078Z,71.15
2023-01-26T06:03:58.733Z,69.28
2023-01-26T06:06:25.315Z,61.55
2023-01-26T06:08:51.877Z,60.83
2023-01-26T06:11:18.467Z,65.10
2023-01-26T06:13:45.080Z,66.70
2023-01-26T06:16:11.644Z,64.55
2023-01-26T06:18:38.253Z,66.00
2023-01-26T06:21:05.003Z,68.63
2023-01-26T06:23:31.918Z,72.40
2023-01-26T06:26:00.231Z,74.72
2023-01-26T06:28:27.716Z,71.20
2023-01-26T06:31:00.306Z,73.97
2023-01-26T06:33:26.927Z,61.10
2023-01-26T06:35:54.543Z,63.97
2023-01-26T06:38:21.405Z,66.07
2023-01-26T06:40:48.054Z,62.53
2023-01-26T06:43:14.693Z,59.45
2023-01-26T06:45:42.519Z,57.75
2023-01-26T06:48:09.158Z,57.28
2023-01-26T06:50:36.194Z,52.28
2023-01-26T06:55:39.064Z,60.45
2023-01-26T06:58:05.642Z,68.78
2023-01-26T07:00:32.193Z,74.13
2023-01-26T07:02:58.750Z,76.43
2023-01-26T07:05:25.380Z,58.72
2023-01-26T07:07:51.949Z,58.15
2023-01-26T07:10:18.536Z,61.33
2023-01-26T07:12:46.035Z,58.00
2023-01-26T07:15:13.096Z,68.50
2023-01-26T07:17:40.093Z,51.58
2023-01-26T07:20:07.843Z,57.38
2023-01-26T07:22:34.465Z,61.03
2023-01-26T07:25:01.127Z,79.80
2023-01-26T07:27:27.698Z,54.10
2023-01-26T07:29:54.258Z,55.38
2023-01-26T07:32:20.925Z,37.80
2023-01-26T07:34:48.888Z,50.53
2023-01-26T07:37:15.454Z,52.67
2023-01-26T07:39:42.032Z,52.53
2023-01-26T07:42:10.306Z,63.88
2023-01-26T07:44:36.972Z,57.97
2023-01-26T07:47:03.526Z,52.55
2023-01-26T07:49:30.898Z,43.00
2023-01-26T07:51:57.559Z,54.40
2023-01-26T07:54:24.549Z,50.25
2023-01-26T07:56:52.800Z,47.38
2023-01-26T07:59:19.372Z,45.05
2023-01-26T08:01:46.558Z,60.08
2023-01-26T08:04:13.185Z,45.70
2023-01-26T08:06:39.778Z,46.75
2023-01-26T08:09:06.514Z,65.80
2023-01-26T08:11:33.411Z,59.67
2023-01-26T08:14:00.008Z,55.70
2023-01-26T08:16:26.634Z,55.20
2023-01-26T08:18:53.258Z,51.35
2023-01-26T08:21:20.249Z,48.38
2023-01-26T08:23:51.125Z,54.55
2023-01-26T08:26:19.363Z,50.03
2023-01-26T08:28:46.770Z,60.58
2023-01-26T08:31:19.581Z,44.53
2023-01-26T08:33:52.179Z,67.72
2023-01-26T08:36:22.328Z,46.13
2023-01-26T08:38:49.945Z,46.65
2023-01-26T08:41:16.594Z,56.72
2023-01-26T08:43:43.285Z,59.47
2023-01-26T08:46:11.053Z,44.20
2023-01-26T08:48:38.490Z,63.92
2023-01-26T08:51:06.781Z,54.00
2023-01-26T08:53:34.941Z,51.55
2023-01-26T08:56:03.214Z,65.60
2023-01-26T08:58:29.996Z,55.92
2023-01-26T09:00:56.613Z,60.30
2023-01-26T09:03:23.210Z,56.15
2023-01-26T09:05:49.883Z,55.28
2023-01-26T09:08:16.455Z,62.83
2023-01-26T09:10:45.086Z,57.90
2023-01-26T09:13:11.795Z,53.70
2023-01-26T09:15:38.723Z,61.65
2023-01-26T09:18:05.327Z,56.65
2023-01-26T09:20:32.027Z,55.10
2023-01-26T09:22:58.610Z,54.83
2023-01-26T09:25:25.208Z,58.17
2023-01-26T09:27:51.758Z,54.30
2023-01-26T09:30:18.497Z,52.42
2023-01-26T09:32:45.112Z,49.33
2023-01-26T09:35:14.793Z,61.35
2023-01-26T09:37:44.005Z,62.17
2023-01-26T09:40:22.963Z,46.92
2023-01-26T09:43:01.518Z,54.30
2023-01-26T09:45:43.918Z,60.47
2023-01-26T09:51:21.214Z,44.30
2023-01-26T09:54:00.545Z,52.45
2023-01-26T09:56:30.060Z,67.47
2023-01-26T09:59:13.451Z,64.93
2023-01-26T10:01:57.491Z,62.53
2023-01-26T10:04:36.486Z,37.72
2023-01-26T10:07:11.924Z,43.35
2023-01-26T10:09:41.155Z,63.03
2023-01-26T10:12:18.238Z,45.67
2023-01-26T10:15:17.191Z,49.22
2023-01-26T10:17:47.059Z,54.50
2023-01-26T10:20:52.042Z,46.20
2023-01-26T10:23:24.747Z,54.25
2023-01-26T10:25:51.684Z,48.22
2023-01-26T10:28:35.092Z,49.13
2023-01-26T10:31:04.036Z,48.80
2023-01-26T10:33:34.101Z,52.20
2023-01-26T10:36:06.932Z,52.80
2023-01-26T10:38:33.464Z,51.22
2023-01-26T10:41:20.038Z,59.33
2023-01-26T10:43:59.018Z,54.33
2023-01-26T10:46:30.299Z,44.92
2023-01-26T10:49:00.583Z,63.90
2023-01-26T10:51:34.878Z,61.40
2023-01-26T10:54:19.659Z,46.58
2023-01-26T10:56:55.268Z,49.05
2023-01-26T10:59:27.313Z,53.35
2023-01-26T11:02:11.636Z,66.45
2023-01-26T11:04:39.601Z,59.47
2023-01-26T11:07:28.725Z,55.05
2023-01-26T11:09:55.748Z,46.42
2023-01-26T11:12:25.268Z,56.17
2023-01-26T11:15:12.776Z,49.75
2023-01-26T11:18:02.150Z,61.90
2023-01-26T11:20:51.235Z,56.75
2023-01-26T11:23:34.149Z,47.42
2023-01-26T11:26:13.309Z,46.70
2023-01-26T11:29:14.214Z,57.03
2023-01-26T11:32:23.367Z,42.58
2023-01-26T11:35:23.934Z,42.05
2023-01-26T11:38:22.261Z,49.72
2023-01-26T11:41:14.605Z,44.85
2023-01-26T11:43:47.026Z,43.30
2023-01-26T11:46:41.228Z,40.00
2023-01-26T11:49:45.117Z,37.63
2023-01-26T11:52:18.580Z,36.33
2023-01-26T11:55:07.119Z,49.70
2023-01-26T11:57:36.703Z,42.72
2023-01-26T12:00:07.265Z,48.25
2023-01-26T12:02:37.254Z,40.38
2023-01-26T12:05:26.662Z,49.08
2023-01-26T12:08:00.201Z,47.35
2023-01-26T12:10:50.540Z,35.38
2023-01-26T12:13:34.688Z,40.97
2023-01-26T12:16:09.109Z,38.30
2023-01-26T12:18:55.755Z,43.05
2023-01-26T12:21:28.558Z,41.17
2023-01-26T12:24:05.764Z,38.22
2023-01-26T12:26:45.533Z,49.03
2023-01-26T12:29:28.263Z,37.22
2023-01-26T12:32:01.084Z,44.45
2023-01-26T12:34:33.336Z,51.88
2023-01-26T12:37:32.026Z,45.20
2023-01-26T12:40:18.879Z,45.88
2023-01-26T12:42:52.883Z,45.45
2023-01-26T12:45:28.532Z,38.33
2023-01-26T12:48:04.136Z,51.88
2023-01-26T12:50:43.902Z,34.50
2023-01-26T12:53:32.326Z,30.88
2023-01-26T12:56:11.109Z,46.88
2023-01-26T12:58:44.344Z,44.42
2023-01-26T13:01:17.956Z,40.53
2023-01-26T13:04:02.856Z,44.75
2023-01-26T13:06:29.610Z,34.65
2023-01-26T13:09:00.529Z,48.08
2023-01-26T13:11:46.937Z,38.50
2023-01-26T13:14:42.504Z,41.97
2023-01-26T13:17:15.402Z,32.35
2023-01-26T13:19:41.966Z,32.67
2023-01-26T13:22:23.797Z,63.50
2023-01-26T13:24:56.477Z,49.20
2023-01-26T13:27:46.337Z,44.70
2023-01-26T13:30:21.839Z,44.30
2023-01-26T13:32:48.402Z,30.13
2023-01-26T13:35:18.738Z,36.42
2023-01-26T13:37:52.873Z,49.45
2023-01-26T13:40:29.406Z,38.75
2023-01-26T13:43:06.147Z,30.70
2023-01-26T13:46:03.216Z,38.55
2023-01-26T13:48:37.719Z,33.92
2023-01-26T13:51:05.932Z,39.22
2023-01-26T13:53:43.717Z,35.53
2023-01-26T13:56:31.558Z,32.85
2023-01-26T13:59:24.758Z,44.08
2023-01-26T14:01:54.381Z,44.53
2023-01-26T14:04:23.966Z,35.90
2023-01-26T14:06:59.745Z,36.30
2023-01-26T14:09:28.069Z,35.00
2023-01-26T14:12:18.677Z,47.92
2023-01-26T14:14:47.967Z,30.15
2023-01-26T14:17:48.500Z,36.00
2023-01-26T14:20:36.739Z,38.08
2023-01-26T14:23:18.476Z,41.25
2023-01-26T14:25:47.084Z,33.42
2023-01-26T14:28:16.852Z,30.98
2023-01-26T14:30:44.728Z,36.58
2023-01-26T14:33:14.130Z,34.05
2023-01-26T14:35:42.349Z,34.75
2023-01-26T14:38:11.798Z,27.92
2023-01-26T14:40:45.385Z,41.40
2023-01-26T14:43:13.670Z,43.65
2023-01-26T14:45:45.350Z,30.17
2023-01-26T14:48:15.153Z,36.95
2023-01-26T14:50:43.833Z,36.92
2023-01-26T14:53:19.886Z,34.55
2023-01-26T14:55:47.527Z,30.90
2023-01-26T14:58:33.595Z,27.92
2023-01-26T15:01:01.531Z,32.38
2023-01-26T15:03:33.524Z,35.72
2023-01-26T15:06:14.043Z,31.52
2023-01-26T15:08:42.647Z,30.15
2023-01-26T15:11:53.691Z,24.58
2023-01-26T15:14:46.487Z,28.25
2023-01-26T15:17:38.026Z,25.38
2023-01-26T15:20:15.069Z,29.92
2023-01-26T15:22:49.475Z,31.30
2023-01-26T15:25:23.384Z,34.53
2023-01-26T15:27:58.750Z,24.08
2023-01-26T15:30:34.247Z,30.05
2023-01-26T15:33:01.811Z,33.55
2023-01-26T15:35:30.242Z,29.23
2023-01-26T15:38:10.204Z,32.75
2023-01-26T15:40:37.089Z,45.60
2023-01-26T15:43:17.168Z,31.77
2023-01-26T15:45:58.485Z,30.40
2023-01-26T15:48:26.672Z,30.58
2023-01-26T15:50:53.250Z,39.47
2023-01-26T15:53:22.258Z,21.38
2023-01-26T15:55:52.760Z,22.90
2023-01-26T15:58:19.658Z,34.40
2023-01-26T16:00:47.242Z,26.95
2023-01-26T16:03:16.734Z,22.83
2023-01-26T16:05:44.171Z,31.20
2023-01-26T16:08:10.830Z,45.50
2023-01-26T16:10:38.332Z,29.33
2023-01-26T16:13:09.876Z,27.90
2023-01-26T16:15:43.128Z,24.33
2023-01-26T16:18:10.575Z,28.30
2023-01-26T16:20:39.704Z,23.60
2023-01-26T16:23:31.809Z,32.15
2023-01-26T16:25:58.376Z,45.35
2023-01-26T16:28:25.135Z,27.70
2023-01-26T16:30:51.784Z,30.52
2023-01-26T16:33:24.448Z,22.33
2023-01-26T16:35:51.181Z,31.58
2023-01-26T16:38:17.942Z,30.45
2023-01-26T16:40:46.926Z,28.42
2023-01-26T16:43:23.628Z,31.75
2023-01-26T16:45:50.557Z,25.17
2023-01-26T16:48:17.474Z,24.23
2023-01-26T16:50:45.041Z,33.20
2023-01-26T16:53:25.288Z,29.50
2023-01-26T16:55:52.478Z,36.67
2023-01-26T16:58:21.398Z,28.83
2023-01-26T17:00:49.120Z,33.63
2023-01-26T17:03:15.744Z,29.80
2023-01-26T17:05:42.399Z,41.35
2023-01-26T17:08:09.300Z,29.85
2023-01-26T17:10:35.953Z,84.90
2023-01-26T17:13:02.580Z,75.25
2023-01-26T17:15:29.312Z,45.75
2023-01-26T17:17:56.338Z,26.73
2023-01-26T17:20:23.450Z,31.00
2023-01-26T17:22:50.241Z,27.52
2023-01-26T17:25:18.566Z,41.80
2023-01-26T17:27:46.411Z,34.13
2023-01-26T17:30:13.414Z,30.75
2023-01-26T17:32:42.182Z,22.98
2023-01-26T17:35:09.051Z,27.88
2023-01-26T17:37:37.419Z,31.58
2023-01-26T17:40:05.664Z,27.25
2023-01-26T17:42:34.794Z,30.27
2023-01-26T17:45:01.979Z,34.20
2023-01-26T17:47:28.586Z,28.95
2023-01-26T17:49:55.195Z,32.90
2023-01-26T17:52:21.747Z,28.02
2023-01-26T17:54:48.315Z,27.02
2023-01-26T17:57:15.096Z,32.83
2023-01-26T17:59:41.696Z,33.17
2023-01-26T18:02:10.785Z,35.33
2023-01-26T18:04:37.513Z,41.05
2023-01-26T18:07:04.316Z,24.92
2023-01-26T18:09:31.217Z,34.22
2023-01-26T18:11:57.794Z,31.20
2023-01-26T18:14:24.354Z,24.65
2023-01-26T18:16:51.005Z,24.55
2023-01-26T18:19:17.660Z,43.70
2023-01-26T18:21:44.247Z,27.65
2023-01-26T18:24:10.965Z,28.17
2023-01-26T18:26:38.476Z,38.85
2023-01-26T18:29:06.146Z,36.78
2023-01-26T18:31:35.831Z,37.15
2023-01-26T18:34:03.961Z,33.03
2023-01-26T18:36:30.687Z,41.28
2023-01-26T18:38:59.837Z,35.15
2023-01-26T18:41:27.660Z,30.23
2023-01-26T18:43:57.560Z,23.55
2023-01-26T18:46:25.234Z,30.42
2023-01-26T18:49:00.629Z,26.35
2023-01-26T18:51:29.062Z,28.52
2023-01-26T18:53:55.682Z,31.92
2023-01-26T18:56:22.423Z,39.90
2023-01-26T18:58:52.724Z,29.92
2023-01-26T19:01:21.175Z,32.70
2023-01-26T19:03:53.837Z,28.67
2023-01-26T19:06:21.183Z,34.55
2023-01-26T19:08:58.278Z,30.75
2023-01-26T19:11:27.657Z,52.35
2023-01-26T19:13:55.139Z,51.40
2023-01-26T19:16:22.343Z,34.88
2023-01-26T19:18:49.865Z,45.17
2023-01-26T19:21:17.203Z,46.08
2023-01-26T19:23:43.954Z,43.67
2023-01-26T19:26:12.424Z,40.65
2023-01-26T19:28:41.362Z,43.60
2023-01-26T19:31:09.547Z,41.30
2023-01-26T19:33:36.911Z,41.08
2023-01-26T19:36:05.729Z,43.83
2023-01-26T19:38:33.868Z,41.28
2023-01-26T19:41:01.845Z,39.63
2023-01-26T19:43:28.765Z,36.47
2023-01-26T19:45:56.669Z,48.40
2023-01-26T19:48:26.668Z,37.45
2023-01-26T19:51:02.928Z,39.53
2023-01-26T19:53:34.995Z,38.03
2023-01-26T19:56:13.263Z,38.08
2023-01-26T19:58:40.304Z,45.38
2023-01-26T20:01:11.151Z,30.38
2023-01-26T20:03:38.739Z,44.35
2023-01-26T20:06:06.525Z,33.25
2023-01-26T20:08:33.165Z,40.88
2023-01-26T20:11:07.492Z,41.53
2023-01-26T20:13:35.003Z,27.05
2023-01-26T20:16:02.866Z,36.35
2023-01-26T20:18:31.109Z,32.55
2023-01-26T20:21:00.696Z,37.35
2023-01-26T20:23:28.202Z,33.13
2023-01-26T20:26:06.993Z,46.03
2023-01-26T20:28:33.869Z,24.90
2023-01-26T20:31:09.044Z,46.17
2023-01-26T20:33:36.778Z,35.88
2023-01-26T20:36:12.713Z,28.88
2023-01-26T20:38:39.909Z,34.00
2023-01-26T20:41:09.132Z,34.38
2023-01-26T20:43:39.523Z,33.67
2023-01-26T20:46:10.600Z,40.35
2023-01-26T20:48:37.792Z,31.55
2023-01-26T20:51:13.828Z,35.08
2023-01-26T20:53:41.720Z,32.25
2023-01-26T20:56:09.831Z,37.10
2023-01-26T20:58:38.506Z,29.35
2023-01-26T21:01:07.017Z,31.90
2023-01-26T21:03:36.295Z,43.53
2023-01-26T21:06:03.960Z,31.52
2023-01-26T21:08:31.261Z,34.97
2023-01-26T21:10:57.885Z,33.03
2023-01-26T21:13:24.531Z,40.00
2023-01-26T21:15:52.597Z,37.67
2023-01-26T21:18:19.247Z,38.55
2023-01-26T21:20:57.138Z,40.40
2023-01-26T21:23:23.960Z,38.78
2023-01-26T21:25:58.272Z,28.83
2023-01-26T21:28:24.919Z,49.15
2023-01-26T21:31:06.530Z,29.42
2023-01-26T21:33:35.836Z,45.53
2023-01-26T21:36:04.252Z,30.45
2023-01-26T21:38:32.994Z,32.35
2023-01-26T21:41:26.212Z,37.53
2023-01-26T21:44:01.297Z,33.95
2023-01-26T21:46:28.918Z,47.60
2023-01-26T21:48:55.913Z,37.33
2023-01-26T21:51:41.910Z,33.78
2023-01-26T21:54:08.503Z,36.03
2023-01-26T21:56:35.707Z,33.38
2023-01-26T21:59:06.147Z,34.80
2023-01-26T22:01:38.431Z,46.22
2023-01-26T22:06:35.804Z,27.90
2023-01-26T22:09:03.207Z,41.63
2023-01-26T22:11:30.548Z,32.42
2023-01-26T22:13:57.251Z,32.03
2023-01-26T22:16:24.369Z,40.90
2023-01-26T22:18:51.073Z,39.30
2023-01-26T22:21:18.624Z,26.50
2023-01-26T22:23:45.974Z,40.25
2023-01-26T22:26:17.805Z,26.23
2023-01-26T22:28:49.951Z,33.10
2023-01-26T22:33:44.416Z,29.70
2023-01-26T22:36:12.279Z,32.85
2023-01-26T22:38:39.338Z,30.98
2023-01-26T22:41:06.951Z,30.13
2023-01-26T22:43:34.238Z,22.73
2023-01-26T22:46:09.256Z,22.52
2023-01-26T22:48:36.217Z,42.38
2023-01-26T22:51:15.768Z,35.60
2023-01-26T22:53:44.059Z,40.65
2023-01-26T22:56:11.408Z,38.47
2023-01-26T22:58:47.626Z,39.05
2023-01-26T23:01:21.198Z,34.45
2023-01-26T23:03:51.777Z,32.58
2023-01-26T23:06:18.825Z,35.95
2023-01-26T23:08:45.809Z,33.75
2023-01-26T23:11:16.459Z,25.13
2023-01-26T23:13:44.539Z,25.02
2023-01-26T23:16:11.625Z,30.60
2023-01-26T23:19:00.210Z,27.67
2023-01-26T23:21:28.368Z,31.27
2023-01-26T23:23:55.100Z,28.58
2023-01-26T23:26:22.207Z,36.47
2023-01-26T23:28:48.883Z,30.42
2023-01-26T23:31:17.660Z,29.42
2023-01-26T23:33:44.787Z,32.20
2023-01-26T23:36:12.665Z,29.65
2023-01-26T23:38:39.560Z,24.35
2023-01-26T23:41:08.300Z,23.13
2023-01-26T23:43:35.176Z,36.67
2023-01-26T23:46:01.845Z,25.65
2023-01-26T23:48:28.592Z,36.00
2023-01-26T23:50:59.934Z,44.25
2023-01-26T23:53:28.040Z,34.33
2023-01-26T23:55:54.926Z,20.35
2023-01-26T23:58:21.603Z,28.15
